sensor_id;sensor_type;location;lat;lon;timestamp;P1;durP1;ratioP1;P2;durP2;ratioP2
71969;SDS011;59838;52.152;5.436;2023-02-23T00:03:52;44.28;;;18.95;;
71969;SDS011;59838;52.152;5.436;2023-02-23T00:06:21;44.30;;;17.90;;
71969;SDS011;59838;52.152;5.436;2023-02-23T00:08:49;46.60;;;18.50;;
71969;SDS011;59838;52.152;5.436;2023-02-23T00:11:18;43.00;;;17.65;;
71969;SDS011;59838;52.152;5.436;2023-02-23T00:13:46;46.60;;;19.38;;
71969;SDS011;59838;52.152;5.436;2023-02-23T00:16:16;43.97;;;17.40;;
71969;SDS011;59838;52.152;5.436;2023-02-23T00:18:45;42.70;;;16.77;;
71969;SDS011;59838;52.152;5.436;2023-02-23T00:21:17;45.10;;;18.52;;
71969;SDS011;59838;52.152;5.436;2023-02-23T00:23:52;47.30;;;17.52;;
71969;SDS011;59838;52.152;5.436;2023-02-23T00:26:20;38.85;;;17.20;;
71969;SDS011;59838;52.152;5.436;2023-02-23T00:28:54;49.45;;;18.15;;
71969;SDS011;59838;52.152;5.436;2023-02-23T00:31:21;49.43;;;18.90;;
71969;SDS011;59838;52.152;5.436;2023-02-23T00:33:51;47.22;;;18.85;;
71969;SDS011;59838;52.152;5.436;2023-02-23T00:36:20;45.22;;;19.70;;
71969;SDS011;59838;52.152;5.436;2023-02-23T00:38:51;48.97;;;20.65;;
71969;SDS011;59838;52.152;5.436;2023-02-23T00:41:19;55.00;;;21.20;;
71969;SDS011;59838;52.152;5.436;2023-02-23T00:43:48;53.87;;;20.10;;
71969;SDS011;59838;52.152;5.436;2023-02-23T00:46:16;58.40;;;21.55;;
71969;SDS011;59838;52.152;5.436;2023-02-23T00:48:44;56.80;;;21.65;;
71969;SDS011;59838;52.152;5.436;2023-02-23T00:51:11;54.67;;;19.80;;
71969;SDS011;59838;52.152;5.436;2023-02-23T00:53:38;51.97;;;20.33;;
71969;SDS011;59838;52.152;5.436;2023-02-23T00:56:06;51.27;;;21.07;;
71969;SDS011;59838;52.152;5.436;2023-02-23T00:58:34;47.47;;;20.70;;
71969;SDS011;59838;52.152;5.436;2023-02-23T01:01:00;51.97;;;21.77;;
71969;SDS011;59838;52.152;5.436;2023-02-23T01:03:28;52.78;;;20.30;;
71969;SDS011;59838;52.152;5.436;2023-02-23T01:06:01;50.70;;;19.85;;
71969;SDS011;59838;52.152;5.436;2023-02-23T01:08:31;53.90;;;21.30;;
71969;SDS011;59838;52.152;5.436;2023-02-23T01:11:04;55.80;;;21.65;;
71969;SDS011;59838;52.152;5.436;2023-02-23T01:13:31;50.75;;;21.05;;
71969;SDS011;59838;52.152;5.436;2023-02-23T01:15:58;52.13;;;21.08;;
71969;SDS011;59838;52.152;5.436;2023-02-23T01:18:24;47.15;;;19.35;;
71969;SDS011;59838;52.152;5.436;2023-02-23T01:20:51;51.77;;;20.33;;
71969;SDS011;59838;52.152;5.436;2023-02-23T01:23:17;54.13;;;20.55;;
71969;SDS011;59838;52.152;5.436;2023-02-23T01:25:46;55.03;;;22.27;;
71969;SDS011;59838;52.152;5.436;2023-02-23T01:28:13;55.22;;;20.55;;
71969;SDS011;59838;52.152;5.436;2023-02-23T01:30:39;52.33;;;21.23;;
71969;SDS011;59838;52.152;5.436;2023-02-23T01:33:06;54.27;;;21.97;;
71969;SDS011;59838;52.152;5.436;2023-02-23T01:35:33;51.47;;;21.23;;
71969;SDS011;59838;52.152;5.436;2023-02-23T01:37:59;55.10;;;21.50;;
71969;SDS011;59838;52.152;5.436;2023-02-23T01:40:26;50.03;;;19.52;;
71969;SDS011;59838;52.152;5.436;2023-02-23T01:42:56;53.38;;;22.40;;
71969;SDS011;59838;52.152;5.436;2023-02-23T01:45:40;50.17;;;20.33;;
71969;SDS011;59838;52.152;5.436;2023-02-23T01:50:40;56.10;;;21.20;;
71969;SDS011;59838;52.152;5.436;2023-02-23T01:53:10;51.35;;;19.65;;
71969;SDS011;59838;52.152;5.436;2023-02-23T01:55:36;51.75;;;21.20;;
71969;SDS011;59838;52.152;5.436;2023-02-23T01:58:07;54.20;;;21.00;;
71969;SDS011;59838;52.152;5.436;2023-02-23T02:00:41;46.80;;;19.35;;
71969;SDS011;59838;52.152;5.436;2023-02-23T02:06:11;49.15;;;20.75;;
71969;SDS011;59838;52.152;5.436;2023-02-23T02:08:40;52.50;;;21.27;;
71969;SDS011;59838;52.152;5.436;2023-02-23T02:11:12;50.37;;;20.67;;
71969;SDS011;59838;52.152;5.436;2023-02-23T02:14:00;49.92;;;20.23;;
71969;SDS011;59838;52.152;5.436;2023-02-23T02:16:45;49.47;;;21.30;;
71969;SDS011;59838;52.152;5.436;2023-02-23T02:28:06;52.97;;;20.90;;
71969;SDS011;59838;52.152;5.436;2023-02-23T02:31:22;51.35;;;20.95;;
71969;SDS011;59838;52.152;5.436;2023-02-23T02:33:48;50.00;;;20.48;;
71969;SDS011;59838;52.152;5.436;2023-02-23T02:41:54;47.60;;;20.00;;
71969;SDS011;59838;52.152;5.436;2023-02-23T02:44:32;47.10;;;18.25;;
71969;SDS011;59838;52.152;5.436;2023-02-23T02:47:08;45.97;;;19.05;;
71969;SDS011;59838;52.152;5.436;2023-02-23T02:49:44;50.33;;;19.42;;
71969;SDS011;59838;52.152;5.436;2023-02-23T02:54:52;46.53;;;18.27;;
71969;SDS011;59838;52.152;5.436;2023-02-23T02:57:24;50.53;;;19.67;;
71969;SDS011;59838;52.152;5.436;2023-02-23T02:59:52;51.55;;;20.52;;
71969;SDS011;59838;52.152;5.436;2023-02-23T03:02:39;54.17;;;20.95;;
71969;SDS011;59838;52.152;5.436;2023-02-23T03:05:28;50.13;;;19.97;;
71969;SDS011;59838;52.152;5.436;2023-02-23T03:08:30;55.72;;;20.88;;
71969;SDS011;59838;52.152;5.436;2023-02-23T03:11:21;47.08;;;19.40;;
71969;SDS011;59838;52.152;5.436;2023-02-23T03:14:17;49.30;;;19.85;;
71969;SDS011;59838;52.152;5.436;2023-02-23T03:20:14;48.47;;;20.07;;
71969;SDS011;59838;52.152;5.436;2023-02-23T03:23:20;48.53;;;19.17;;
71969;SDS011;59838;52.152;5.436;2023-02-23T03:26:11;50.85;;;20.83;;
71969;SDS011;59838;52.152;5.436;2023-02-23T03:29:08;50.72;;;20.08;;
71969;SDS011;59838;52.152;5.436;2023-02-23T03:32:09;53.63;;;20.88;;
71969;SDS011;59838;52.152;5.436;2023-02-23T03:35:06;48.03;;;19.37;;
71969;SDS011;59838;52.152;5.436;2023-02-23T03:40:47;45.80;;;19.60;;
71969;SDS011;59838;52.152;5.436;2023-02-23T03:43:36;51.15;;;20.20;;
71969;SDS011;59838;52.152;5.436;2023-02-23T03:46:28;44.67;;;19.48;;
71969;SDS011;59838;52.152;5.436;2023-02-23T03:49:15;55.07;;;20.13;;
71969;SDS011;59838;52.152;5.436;2023-02-23T03:52:09;49.03;;;18.48;;
71969;SDS011;59838;52.152;5.436;2023-02-23T03:55:01;45.90;;;20.45;;
71969;SDS011;59838;52.152;5.436;2023-02-23T03:57:54;47.55;;;18.88;;
71969;SDS011;59838;52.152;5.436;2023-02-23T04:00:47;47.63;;;18.85;;
71969;SDS011;59838;52.152;5.436;2023-02-23T04:03:35;49.77;;;19.47;;
71969;SDS011;59838;52.152;5.436;2023-02-23T04:06:25;46.03;;;18.60;;
71969;SDS011;59838;52.152;5.436;2023-02-23T04:09:12;46.65;;;19.73;;
71969;SDS011;59838;52.152;5.436;2023-02-23T04:12:08;53.08;;;18.50;;
71969;SDS011;59838;52.152;5.436;2023-02-23T04:17:51;48.47;;;19.53;;
71969;SDS011;59838;52.152;5.436;2023-02-23T04:20:19;47.15;;;19.48;;
71969;SDS011;59838;52.152;5.436;2023-02-23T04:22:45;52.35;;;18.73;;
71969;SDS011;59838;52.152;5.436;2023-02-23T04:25:13;51.58;;;20.00;;
71969;SDS011;59838;52.152;5.436;2023-02-23T04:27:42;47.17;;;20.27;;
71969;SDS011;59838;52.152;5.436;2023-02-23T04:30:09;51.87;;;19.23;;
71969;SDS011;59838;52.152;5.436;2023-02-23T04:32:36;44.60;;;18.33;;
71969;SDS011;59838;52.152;5.436;2023-02-23T04:35:03;48.47;;;18.60;;
71969;SDS011;59838;52.152;5.436;2023-02-23T04:37:30;49.00;;;19.38;;
71969;SDS011;59838;52.152;5.436;2023-02-23T04:39:56;48.88;;;18.15;;
71969;SDS011;59838;52.152;5.436;2023-02-23T04:42:22;42.53;;;17.87;;
71969;SDS011;59838;52.152;5.436;2023-02-23T04:44:49;47.00;;;18.67;;
71969;SDS011;59838;52.152;5.436;2023-02-23T04:47:15;49.75;;;20.17;;
71969;SDS011;59838;52.152;5.436;2023-02-23T04:49:42;46.45;;;19.02;;
71969;SDS011;59838;52.152;5.436;2023-02-23T04:52:09;44.05;;;18.35;;
71969;SDS011;59838;52.152;5.436;2023-02-23T04:54:36;46.60;;;18.70;;
71969;SDS011;59838;52.152;5.436;2023-02-23T04:57:06;51.00;;;19.10;;
71969;SDS011;59838;52.152;5.436;2023-02-23T04:59:33;47.65;;;18.92;;
71969;SDS011;59838;52.152;5.436;2023-02-23T05:01:59;47.47;;;18.42;;
71969;SDS011;59838;52.152;5.436;2023-02-23T05:04:25;54.95;;;19.88;;
71969;SDS011;59838;52.152;5.436;2023-02-23T05:06:52;52.60;;;20.00;;
71969;SDS011;59838;52.152;5.436;2023-02-23T05:09:19;60.17;;;21.25;;
71969;SDS011;59838;52.152;5.436;2023-02-23T05:11:45;57.08;;;22.20;;
71969;SDS011;59838;52.152;5.436;2023-02-23T05:14:12;47.83;;;18.48;;
71969;SDS011;59838;52.152;5.436;2023-02-23T05:16:38;55.03;;;20.50;;
71969;SDS011;59838;52.152;5.436;2023-02-23T05:19:05;53.93;;;20.50;;
71969;SDS011;59838;52.152;5.436;2023-02-23T05:21:31;51.95;;;20.65;;
71969;SDS011;59838;52.152;5.436;2023-02-23T05:23:58;60.40;;;21.73;;
71969;SDS011;59838;52.152;5.436;2023-02-23T05:26:25;54.05;;;20.77;;
71969;SDS011;59838;52.152;5.436;2023-02-23T05:28:51;54.67;;;20.48;;
71969;SDS011;59838;52.152;5.436;2023-02-23T05:31:18;48.70;;;19.07;;
71969;SDS011;59838;52.152;5.436;2023-02-23T05:33:45;52.20;;;19.75;;
71969;SDS011;59838;52.152;5.436;2023-02-23T05:36:12;57.20;;;21.67;;
71969;SDS011;59838;52.152;5.436;2023-02-23T05:38:42;59.55;;;21.90;;
71969;SDS011;59838;52.152;5.436;2023-02-23T05:41:12;55.28;;;19.67;;
71969;SDS011;59838;52.152;5.436;2023-02-23T05:43:40;50.27;;;20.43;;
71969;SDS011;59838;52.152;5.436;2023-02-23T05:46:07;56.80;;;20.58;;
71969;SDS011;59838;52.152;5.436;2023-02-23T05:48:39;52.28;;;20.27;;
71969;SDS011;59838;52.152;5.436;2023-02-23T05:51:07;52.55;;;19.95;;
71969;SDS011;59838;52.152;5.436;2023-02-23T05:53:36;58.97;;;20.73;;
71969;SDS011;59838;52.152;5.436;2023-02-23T05:56:03;54.63;;;20.77;;
71969;SDS011;59838;52.152;5.436;2023-02-23T05:58:31;56.67;;;20.90;;
71969;SDS011;59838;52.152;5.436;2023-02-23T06:00:57;52.97;;;20.48;;
71969;SDS011;59838;52.152;5.436;2023-02-23T06:03:25;52.28;;;20.13;;
71969;SDS011;59838;52.152;5.436;2023-02-23T06:05:52;57.83;;;21.13;;
71969;SDS011;59838;52.152;5.436;2023-02-23T06:08:20;52.90;;;18.70;;
71969;SDS011;59838;52.152;5.436;2023-02-23T06:10:47;48.63;;;19.13;;
71969;SDS011;59838;52.152;5.436;2023-02-23T06:13:13;52.58;;;19.85;;
71969;SDS011;59838;52.152;5.436;2023-02-23T06:15:40;49.47;;;19.70;;
71969;SDS011;59838;52.152;5.436;2023-02-23T06:18:07;56.05;;;19.88;;
71969;SDS011;59838;52.152;5.436;2023-02-23T06:20:34;48.10;;;18.23;;
71969;SDS011;59838;52.152;5.436;2023-02-23T06:23:05;52.55;;;20.52;;
71969;SDS011;59838;52.152;5.436;2023-02-23T06:25:32;50.60;;;20.02;;
71969;SDS011;59838;52.152;5.436;2023-02-23T06:27:59;52.85;;;19.73;;
71969;SDS011;59838;52.152;5.436;2023-02-23T06:30:25;51.28;;;19.17;;
71969;SDS011;59838;52.152;5.436;2023-02-23T06:32:52;50.07;;;20.13;;
71969;SDS011;59838;52.152;5.436;2023-02-23T06:35:18;48.05;;;18.13;;
71969;SDS011;59838;52.152;5.436;2023-02-23T06:37:45;50.88;;;19.20;;
71969;SDS011;59838;52.152;5.436;2023-02-23T06:40:11;47.65;;;18.73;;
71969;SDS011;59838;52.152;5.436;2023-02-23T06:42:38;45.28;;;18.20;;
71969;SDS011;59838;52.152;5.436;2023-02-23T06:45:04;45.33;;;18.13;;
71969;SDS011;59838;52.152;5.436;2023-02-23T06:47:31;47.42;;;18.58;;
71969;SDS011;59838;52.152;5.436;2023-02-23T06:49:58;48.17;;;18.33;;
71969;SDS011;59838;52.152;5.436;2023-02-23T06:52:25;49.95;;;18.35;;
71969;SDS011;59838;52.152;5.436;2023-02-23T06:54:51;50.20;;;17.75;;
71969;SDS011;59838;52.152;5.436;2023-02-23T06:57:18;42.30;;;16.73;;
71969;SDS011;59838;52.152;5.436;2023-02-23T06:59:45;45.92;;;16.40;;
71969;SDS011;59838;52.152;5.436;2023-02-23T07:02:12;49.85;;;18.02;;
71969;SDS011;59838;52.152;5.436;2023-02-23T07:04:38;50.67;;;19.30;;
71969;SDS011;59838;52.152;5.436;2023-02-23T07:07:05;51.15;;;19.17;;
71969;SDS011;59838;52.152;5.436;2023-02-23T07:09:32;44.80;;;17.83;;
71969;SDS011;59838;52.152;5.436;2023-02-23T07:11:59;48.38;;;18.42;;
71969;SDS011;59838;52.152;5.436;2023-02-23T07:14:26;42.10;;;17.63;;
71969;SDS011;59838;52.152;5.436;2023-02-23T07:16:53;44.95;;;18.23;;
71969;SDS011;59838;52.152;5.436;2023-02-23T07:19:19;45.83;;;18.83;;
71969;SDS011;59838;52.152;5.436;2023-02-23T07:21:46;50.20;;;17.40;;
71969;SDS011;59838;52.152;5.436;2023-02-23T07:24:13;53.22;;;19.45;;
71969;SDS011;59838;52.152;5.436;2023-02-23T07:26:39;47.80;;;17.42;;
71969;SDS011;59838;52.152;5.436;2023-02-23T07:29:09;47.15;;;18.30;;
71969;SDS011;59838;52.152;5.436;2023-02-23T07:31:37;44.95;;;18.38;;
71969;SDS011;59838;52.152;5.436;2023-02-23T07:34:05;51.57;;;18.33;;
71969;SDS011;59838;52.152;5.436;2023-02-23T07:36:33;49.63;;;18.70;;
71969;SDS011;59838;52.152;5.436;2023-02-23T07:39:00;46.33;;;18.50;;
71969;SDS011;59838;52.152;5.436;2023-02-23T07:41:27;41.97;;;17.02;;
71969;SDS011;59838;52.152;5.436;2023-02-23T07:43:54;48.60;;;19.02;;
71969;SDS011;59838;52.152;5.436;2023-02-23T07:46:20;50.20;;;19.23;;
71969;SDS011;59838;52.152;5.436;2023-02-23T07:48:47;46.05;;;17.55;;
71969;SDS011;59838;52.152;5.436;2023-02-23T07:51:14;46.08;;;18.45;;
71969;SDS011;59838;52.152;5.436;2023-02-23T07:53:43;49.88;;;19.25;;
71969;SDS011;59838;52.152;5.436;2023-02-23T07:56:10;46.83;;;18.70;;
71969;SDS011;59838;52.152;5.436;2023-02-23T07:58:42;48.67;;;19.87;;
71969;SDS011;59838;52.152;5.436;2023-02-23T08:01:10;51.88;;;19.90;;
71969;SDS011;59838;52.152;5.436;2023-02-23T08:03:38;48.65;;;19.83;;
71969;SDS011;59838;52.152;5.436;2023-02-23T08:06:05;56.13;;;21.67;;
71969;SDS011;59838;52.152;5.436;2023-02-23T08:08:31;54.95;;;21.58;;
71969;SDS011;59838;52.152;5.436;2023-02-23T08:11:00;49.00;;;19.40;;
71969;SDS011;59838;52.152;5.436;2023-02-23T08:13:29;50.22;;;18.60;;
71969;SDS011;59838;52.152;5.436;2023-02-23T08:15:57;50.05;;;20.92;;
71969;SDS011;59838;52.152;5.436;2023-02-23T08:18:24;52.53;;;18.77;;
71969;SDS011;59838;52.152;5.436;2023-02-23T08:20:56;53.53;;;18.50;;
71969;SDS011;59838;52.152;5.436;2023-02-23T08:23:28;51.20;;;19.37;;
71969;SDS011;59838;52.152;5.436;2023-02-23T08:25:55;53.17;;;19.98;;
71969;SDS011;59838;52.152;5.436;2023-02-23T08:28:23;51.65;;;18.80;;
71969;SDS011;59838;52.152;5.436;2023-02-23T08:30:50;50.00;;;18.58;;
71969;SDS011;59838;52.152;5.436;2023-02-23T08:33:16;48.13;;;18.95;;
71969;SDS011;59838;52.152;5.436;2023-02-23T08:35:43;47.03;;;16.53;;
71969;SDS011;59838;52.152;5.436;2023-02-23T08:38:10;47.70;;;18.55;;
71969;SDS011;59838;52.152;5.436;2023-02-23T08:40:37;46.00;;;17.48;;
71969;SDS011;59838;52.152;5.436;2023-02-23T08:43:03;53.90;;;17.83;;
71969;SDS011;59838;52.152;5.436;2023-02-23T08:45:30;49.10;;;17.58;;
71969;SDS011;59838;52.152;5.436;2023-02-23T08:47:56;44.93;;;15.77;;
71969;SDS011;59838;52.152;5.436;2023-02-23T08:50:23;46.30;;;17.33;;
71969;SDS011;59838;52.152;5.436;2023-02-23T08:52:52;44.13;;;17.40;;
71969;SDS011;59838;52.152;5.436;2023-02-23T08:55:19;44.35;;;17.13;;
71969;SDS011;59838;52.152;5.436;2023-02-23T08:57:46;46.28;;;17.38;;
71969;SDS011;59838;52.152;5.436;2023-02-23T09:00:13;43.33;;;15.70;;
71969;SDS011;59838;52.152;5.436;2023-02-23T09:02:42;44.35;;;16.45;;
71969;SDS011;59838;52.152;5.436;2023-02-23T09:05:10;42.38;;;15.90;;
71969;SDS011;59838;52.152;5.436;2023-02-23T09:07:37;47.47;;;16.02;;
71969;SDS011;59838;52.152;5.436;2023-02-23T09:10:05;38.58;;;14.80;;
71969;SDS011;59838;52.152;5.436;2023-02-23T09:12:32;44.80;;;15.53;;
71969;SDS011;59838;52.152;5.436;2023-02-23T09:14:59;39.53;;;14.30;;
71969;SDS011;59838;52.152;5.436;2023-02-23T09:17:25;39.80;;;14.27;;
71969;SDS011;59838;52.152;5.436;2023-02-23T09:19:52;42.72;;;14.65;;
71969;SDS011;59838;52.152;5.436;2023-02-23T09:22:19;38.53;;;13.73;;
71969;SDS011;59838;52.152;5.436;2023-02-23T09:24:45;36.77;;;13.20;;
71969;SDS011;59838;52.152;5.436;2023-02-23T09:27:11;37.92;;;14.38;;
71969;SDS011;59838;52.152;5.436;2023-02-23T09:29:38;36.70;;;13.15;;
71969;SDS011;59838;52.152;5.436;2023-02-23T09:32:07;34.97;;;13.25;;
71969;SDS011;59838;52.152;5.436;2023-02-23T09:34:34;41.70;;;13.90;;
71969;SDS011;59838;52.152;5.436;2023-02-23T09:37:03;27.40;;;11.90;;
71969;SDS011;59838;52.152;5.436;2023-02-23T09:39:30;38.65;;;13.27;;
71969;SDS011;59838;52.152;5.436;2023-02-23T09:44:56;37.05;;;12.60;;
71969;SDS011;59838;52.152;5.436;2023-02-23T09:50:24;33.00;;;11.33;;
71969;SDS011;59838;52.152;5.436;2023-02-23T09:52:58;32.30;;;11.93;;
71969;SDS011;59838;52.152;5.436;2023-02-23T09:55:29;36.78;;;11.85;;
71969;SDS011;59838;52.152;5.436;2023-02-23T09:57:57;33.13;;;11.82;;
71969;SDS011;59838;52.152;5.436;2023-02-23T10:00:30;30.83;;;11.13;;
71969;SDS011;59838;52.152;5.436;2023-02-23T10:03:07;33.17;;;11.80;;
71969;SDS011;59838;52.152;5.436;2023-02-23T10:05:43;34.67;;;12.25;;
71969;SDS011;59838;52.152;5.436;2023-02-23T10:08:29;35.33;;;13.38;;
71969;SDS011;59838;52.152;5.436;2023-02-23T10:11:17;36.00;;;12.52;;
71969;SDS011;59838;52.152;5.436;2023-02-23T10:22:43;34.40;;;12.10;;
71969;SDS011;59838;52.152;5.436;2023-02-23T10:25:15;30.75;;;10.98;;
71969;SDS011;59838;52.152;5.436;2023-02-23T10:27:47;30.92;;;10.63;;
71969;SDS011;59838;52.152;5.436;2023-02-23T10:32:46;27.08;;;11.18;;
71969;SDS011;59838;52.152;5.436;2023-02-23T10:35:18;31.00;;;12.57;;
71969;SDS011;59838;52.152;5.436;2023-02-23T10:37:46;30.15;;;11.13;;
71969;SDS011;59838;52.152;5.436;2023-02-23T10:40:19;25.45;;;10.45;;
71969;SDS011;59838;52.152;5.436;2023-02-23T10:42:48;25.50;;;10.30;;
71969;SDS011;59838;52.152;5.436;2023-02-23T10:45:16;31.10;;;10.43;;
71969;SDS011;59838;52.152;5.436;2023-02-23T10:47:52;24.90;;;10.23;;
71969;SDS011;59838;52.152;5.436;2023-02-23T10:50:23;24.98;;;9.48;;
71969;SDS011;59838;52.152;5.436;2023-02-23T10:52:56;23.40;;;9.25;;
71969;SDS011;59838;52.152;5.436;2023-02-23T10:55:29;24.40;;;8.50;;
71969;SDS011;59838;52.152;5.436;2023-02-23T10:58:01;22.90;;;8.73;;
71969;SDS011;59838;52.152;5.436;2023-02-23T11:00:34;21.23;;;8.38;;
71969;SDS011;59838;52.152;5.436;2023-02-23T11:03:15;25.60;;;9.18;;
71969;SDS011;59838;52.152;5.436;2023-02-23T11:05:47;22.90;;;8.82;;
71969;SDS011;59838;52.152;5.436;2023-02-23T11:13:32;21.15;;;8.15;;
71969;SDS011;59838;52.152;5.436;2023-02-23T11:19:00;20.15;;;8.50;;
71969;SDS011;59838;52.152;5.436;2023-02-23T11:21:32;18.23;;;7.47;;
71969;SDS011;59838;52.152;5.436;2023-02-23T11:26:45;20.85;;;8.25;;
71969;SDS011;59838;52.152;5.436;2023-02-23T11:29:30;18.10;;;7.80;;
71969;SDS011;59838;52.152;5.436;2023-02-23T11:32:14;18.65;;;7.57;;
71969;SDS011;59838;52.152;5.436;2023-02-23T11:34:45;20.93;;;7.40;;
71969;SDS011;59838;52.152;5.436;2023-02-23T11:39:52;18.48;;;7.20;;
71969;SDS011;59838;52.152;5.436;2023-02-23T11:42:21;18.30;;;6.80;;
71969;SDS011;59838;52.152;5.436;2023-02-23T11:44:51;17.25;;;7.22;;
71969;SDS011;59838;52.152;5.436;2023-02-23T11:47:28;18.30;;;6.97;;
71969;SDS011;59838;52.152;5.436;2023-02-23T11:49:56;17.08;;;6.43;;
71969;SDS011;59838;52.152;5.436;2023-02-23T11:52:23;19.55;;;7.20;;
71969;SDS011;59838;52.152;5.436;2023-02-23T11:54:57;21.60;;;7.80;;
71969;SDS011;59838;52.152;5.436;2023-02-23T11:57:26;21.73;;;7.65;;
71969;SDS011;59838;52.152;5.436;2023-02-23T11:59:59;19.43;;;7.57;;
71969;SDS011;59838;52.152;5.436;2023-02-23T12:02:33;24.30;;;8.27;;
71969;SDS011;59838;52.152;5.436;2023-02-23T12:05:21;20.88;;;7.80;;
71969;SDS011;59838;52.152;5.436;2023-02-23T12:10:46;19.88;;;7.57;;
71969;SDS011;59838;52.152;5.436;2023-02-23T12:13:41;18.83;;;6.97;;
71969;SDS011;59838;52.152;5.436;2023-02-23T12:18:50;23.05;;;8.15;;
71969;SDS011;59838;52.152;5.436;2023-02-23T12:21:43;18.77;;;7.22;;
71969;SDS011;59838;52.152;5.436;2023-02-23T12:24:17;20.23;;;8.75;;
71969;SDS011;59838;52.152;5.436;2023-02-23T12:26:58;17.23;;;7.63;;
71969;SDS011;59838;52.152;5.436;2023-02-23T12:32:31;23.27;;;8.25;;
71969;SDS011;59838;52.152;5.436;2023-02-23T12:38:12;16.75;;;7.05;;
71969;SDS011;59838;52.152;5.436;2023-02-23T12:40:51;22.37;;;7.47;;
71969;SDS011;59838;52.152;5.436;2023-02-23T12:46:20;19.13;;;8.05;;
71969;SDS011;59838;52.152;5.436;2023-02-23T12:49:01;21.10;;;7.47;;
71969;SDS011;59838;52.152;5.436;2023-02-23T12:54:01;14.63;;;6.40;;
71969;SDS011;59838;52.152;5.436;2023-02-23T12:56:39;14.95;;;6.43;;
71969;SDS011;59838;52.152;5.436;2023-02-23T12:59:29;14.05;;;6.28;;
71969;SDS011;59838;52.152;5.436;2023-02-23T13:02:27;14.90;;;7.28;;
71969;SDS011;59838;52.152;5.436;2023-02-23T13:13:55;16.75;;;6.70;;
71969;SDS011;59838;52.152;5.436;2023-02-23T13:19:16;18.88;;;7.50;;
71969;SDS011;59838;52.152;5.436;2023-02-23T13:24:51;17.25;;;7.38;;
71969;SDS011;59838;52.152;5.436;2023-02-23T13:29:59;19.73;;;7.32;;
71969;SDS011;59838;52.152;5.436;2023-02-23T13:32:26;18.00;;;7.00;;
71969;SDS011;59838;52.152;5.436;2023-02-23T13:35:02;17.97;;;6.87;;
71969;SDS011;59838;52.152;5.436;2023-02-23T13:37:36;18.05;;;7.22;;
71969;SDS011;59838;52.152;5.436;2023-02-23T13:40:39;16.17;;;6.53;;
71969;SDS011;59838;52.152;5.436;2023-02-23T13:43:26;15.20;;;6.40;;
71969;SDS011;59838;52.152;5.436;2023-02-23T13:51:31;18.70;;;7.00;;
71969;SDS011;59838;52.152;5.436;2023-02-23T13:54:04;18.88;;;7.40;;
71969;SDS011;59838;52.152;5.436;2023-02-23T13:56:49;11.68;;;5.97;;
71969;SDS011;59838;52.152;5.436;2023-02-23T13:59:20;11.90;;;5.72;;
71969;SDS011;59838;52.152;5.436;2023-02-23T14:01:49;12.90;;;5.63;;
71969;SDS011;59838;52.152;5.436;2023-02-23T14:04:25;13.20;;;5.25;;
71969;SDS011;59838;52.152;5.436;2023-02-23T14:06:55;14.88;;;5.55;;
71969;SDS011;59838;52.152;5.436;2023-02-23T14:09:29;16.30;;;5.63;;
71969;SDS011;59838;52.152;5.436;2023-02-23T14:12:12;10.70;;;4.68;;
71969;SDS011;59838;52.152;5.436;2023-02-23T14:14:47;18.60;;;6.93;;
71969;SDS011;59838;52.152;5.436;2023-02-23T14:19:41;12.80;;;5.93;;
71969;SDS011;59838;52.152;5.436;2023-02-23T14:22:27;12.20;;;5.25;;
71969;SDS011;59838;52.152;5.436;2023-02-23T14:28:01;15.03;;;6.17;;
71969;SDS011;59838;52.152;5.436;2023-02-23T14:30:47;15.90;;;6.20;;
71969;SDS011;59838;52.152;5.436;2023-02-23T14:41:23;19.80;;;7.37;;
71969;SDS011;59838;52.152;5.436;2023-02-23T14:43:59;21.95;;;8.35;;
71969;SDS011;59838;52.152;5.436;2023-02-23T14:49:43;26.02;;;9.32;;
71969;SDS011;59838;52.152;5.436;2023-02-23T14:52:16;24.20;;;8.75;;
71969;SDS011;59838;52.152;5.436;2023-02-23T14:54:45;24.47;;;9.13;;
71969;SDS011;59838;52.152;5.436;2023-02-23T14:57:34;32.58;;;10.55;;
71969;SDS011;59838;52.152;5.436;2023-02-23T15:00:06;29.73;;;10.25;;
71969;SDS011;59838;52.152;5.436;2023-02-23T15:02:38;28.95;;;10.60;;
71969;SDS011;59838;52.152;5.436;2023-02-23T15:05:19;35.10;;;10.63;;
71969;SDS011;59838;52.152;5.436;2023-02-23T15:07:49;35.17;;;10.97;;
71969;SDS011;59838;52.152;5.436;2023-02-23T15:10:19;34.28;;;11.30;;
71969;SDS011;59838;52.152;5.436;2023-02-23T15:12:51;36.05;;;11.98;;
71969;SDS011;59838;52.152;5.436;2023-02-23T15:15:19;35.60;;;10.15;;
71969;SDS011;59838;52.152;5.436;2023-02-23T15:17:49;22.42;;;6.30;;
71969;SDS011;59838;52.152;5.436;2023-02-23T15:20:20;11.63;;;3.67;;
71969;SDS011;59838;52.152;5.436;2023-02-23T15:22:53;11.70;;;2.58;;
71969;SDS011;59838;52.152;5.436;2023-02-23T15:25:24;9.88;;;2.22;;
71969;SDS011;59838;52.152;5.436;2023-02-23T15:27:58;13.45;;;2.35;;
71969;SDS011;59838;52.152;5.436;2023-02-23T15:30:42;19.38;;;3.03;;
71969;SDS011;59838;52.152;5.436;2023-02-23T15:33:14;13.27;;;1.97;;
71969;SDS011;59838;52.152;5.436;2023-02-23T15:35:50;13.20;;;1.65;;
71969;SDS011;59838;52.152;5.436;2023-02-23T15:38:20;11.70;;;2.30;;
71969;SDS011;59838;52.152;5.436;2023-02-23T15:41:11;23.70;;;1.88;;
71969;SDS011;59838;52.152;5.436;2023-02-23T15:43:54;17.67;;;2.28;;
71969;SDS011;59838;52.152;5.436;2023-02-23T15:46:30;14.90;;;2.30;;
71969;SDS011;59838;52.152;5.436;2023-02-23T15:48:59;24.58;;;3.20;;
71969;SDS011;59838;52.152;5.436;2023-02-23T15:51:30;15.15;;;2.05;;
71969;SDS011;59838;52.152;5.436;2023-02-23T15:54:01;12.48;;;2.00;;
71969;SDS011;59838;52.152;5.436;2023-02-23T15:56:38;13.77;;;1.50;;
71969;SDS011;59838;52.152;5.436;2023-02-23T15:59:08;8.67;;;1.30;;
71969;SDS011;59838;52.152;5.436;2023-02-23T16:01:42;16.45;;;1.48;;
71969;SDS011;59838;52.152;5.436;2023-02-23T16:06:48;12.15;;;1.70;;
71969;SDS011;59838;52.152;5.436;2023-02-23T16:12:01;17.30;;;1.60;;
71969;SDS011;59838;52.152;5.436;2023-02-23T16:14:34;8.75;;;1.25;;
71969;SDS011;59838;52.152;5.436;2023-02-23T16:17:13;12.93;;;1.77;;
71969;SDS011;59838;52.152;5.436;2023-02-23T16:19:47;17.27;;;1.75;;
71969;SDS011;59838;52.152;5.436;2023-02-23T16:22:24;13.23;;;1.25;;
71969;SDS011;59838;52.152;5.436;2023-02-23T16:24:55;14.67;;;2.07;;
71969;SDS011;59838;52.152;5.436;2023-02-23T16:27:25;23.67;;;2.72;;
71969;SDS011;59838;52.152;5.436;2023-02-23T16:29:55;19.33;;;1.80;;
71969;SDS011;59838;52.152;5.436;2023-02-23T16:33:05;22.58;;;2.40;;
71969;SDS011;59838;52.152;5.436;2023-02-23T16:35:37;12.02;;;1.80;;
71969;SDS011;59838;52.152;5.436;2023-02-23T16:38:14;14.27;;;1.83;;
71969;SDS011;59838;52.152;5.436;2023-02-23T16:40:45;14.65;;;1.20;;
71969;SDS011;59838;52.152;5.436;2023-02-23T16:43:14;13.35;;;1.70;;
71969;SDS011;59838;52.152;5.436;2023-02-23T16:45:41;13.98;;;1.58;;
71969;SDS011;59838;52.152;5.436;2023-02-23T16:48:14;19.25;;;2.13;;
71969;SDS011;59838;52.152;5.436;2023-02-23T16:50:43;7.93;;;1.60;;
71969;SDS011;59838;52.152;5.436;2023-02-23T16:53:11;13.30;;;1.70;;
71969;SDS011;59838;52.152;5.436;2023-02-23T16:55:58;19.05;;;1.33;;
71969;SDS011;59838;52.152;5.436;2023-02-23T16:58:27;17.10;;;2.38;;
71969;SDS011;59838;52.152;5.436;2023-02-23T17:00:56;16.13;;;0.85;;
71969;SDS011;59838;52.152;5.436;2023-02-23T17:03:24;11.53;;;1.73;;